Terminal Aerodrome Forecast
Issued by NWS Boise, ID

Home | Current Version | Previous Version | Text Only | Print | Product List | Glossary On
Versions: 1 2 3 4 5 6 7 8 9 10 11 12 13 14 15 16 17 18 19 20 21 22 23 24 25 26 27 28 29 30 31 32
000
FTUS45 KBOI 052320
TAFBNO
TAF
KBNO 052320Z 0600/0624 29013G23KT P6SM VCTS SCT040CB BKN080
      TEMPO 0600/0604 VRB20G40KT -TSRA BKN040CB OVC080
     FM060400 31013KT P6SM VCSH SCT050 OVC100
     FM061600 31013KT P6SM SCT050 BKN100
     FM062000 31015G22KT P6SM SCT060 BKN120=

USA.gov is the U.S. government's official web portal to all federal, state and local government web resources and services.